Time;durP1;ratioP1;P1;durP2;ratioP2;P2;SDS_P1;SDS_P2;PMS_P1;PMS_P2;Temp;Humidity;BMP_temperature;BMP_pressure;BME280_temperature;BME280_humidity;BME280_pressure;Samples;Min_cycle;Max_cycle;Signal;HPM_P1;HPM_P2
2021/10/10 00:02:08;;;;;;;0.60;0.60;;;;;;;8.14;57.86;102144.38;112989;1195;108556;-79
2021/10/10 00:04:34;;;;;;;0.50;0.50;;;;;;;8.15;57.60;102148.10;113140;1193;94305;-80
2021/10/10 00:07:01;;;;;;;0.60;0.60;;;;;;;8.17;57.23;102146.02;112796;1194;138830;-79
2021/10/10 00:09:28;;;;;;;0.50;0.50;;;;;;;8.17;56.96;102143.88;112799;1194;94258;-79
2021/10/10 00:11:54;;;;;;;0.50;0.50;;;;;;;8.16;56.59;102144.92;112955;1195;137260;-80
2021/10/10 00:14:21;;;;;;;0.50;0.50;;;;;;;8.15;56.31;102139.96;113281;1193;93973;-79
2021/10/10 00:16:48;;;;;;;0.60;0.60;;;;;;;8.09;56.34;102139.89;112764;1193;138193;-80
2021/10/10 00:19:14;;;;;;;0.60;0.60;;;;;;;8.03;56.22;102140.70;113131;1195;93932;-80
2021/10/10 00:21:41;;;;;;;0.60;0.60;;;;;;;8.04;56.36;102138.95;112961;1195;93962;-80
2021/10/10 00:24:08;;;;;;;0.50;0.50;;;;;;;8.01;56.39;102139.09;112929;1196;139039;-80
2021/10/10 00:26:34;;;;;;;0.60;0.60;;;;;;;8.01;56.37;102141.20;112894;1193;93854;-80
2021/10/10 00:29:01;;;;;;;0.60;0.60;;;;;;;8.00;56.35;102136.25;112767;1195;137840;-80
2021/10/10 00:31:27;;;;;;;0.50;0.50;;;;;;;8.00;56.37;102137.30;113003;1195;93872;-80
2021/10/10 00:33:54;;;;;;;0.60;0.60;;;;;;;7.92;56.22;102140.74;113042;1196;93958;-78
2021/10/10 00:36:21;;;;;;;0.60;0.60;;;;;;;7.89;56.38;102136.81;112882;1195;139582;-79
2021/10/10 00:38:47;;;;;;;0.60;0.60;;;;;;;7.87;56.14;102136.27;112994;1194;94033;-79
2021/10/10 00:41:14;;;;;;;0.60;0.60;;;;;;;7.88;56.25;102134.50;112852;1194;138876;-81
2021/10/10 00:43:40;;;;;;;0.60;0.60;;;;;;;7.85;56.06;102134.98;113103;1195;93949;-79
2021/10/10 00:46:07;;;;;;;0.60;0.60;;;;;;;7.81;56.38;102134.05;113175;1193;93889;-79
2021/10/10 00:48:34;;;;;;;0.60;0.60;;;;;;;7.76;56.52;102135.59;112733;1195;138091;-79
2021/10/10 00:51:00;;;;;;;0.60;0.60;;;;;;;7.71;56.58;102137.47;112863;1193;93973;-81
2021/10/10 00:53:27;;;;;;;0.60;0.60;;;;;;;7.70;56.56;102132.32;112845;1195;139321;-79
2021/10/10 00:55:54;;;;;;;0.60;0.60;;;;;;;7.70;56.77;102131.98;112953;1195;94023;-79
2021/10/10 00:58:22;;;;;;;0.60;0.60;;;;;;;7.63;56.99;102131.52;112937;1195;95957;-79
2021/10/10 01:00:51;;;;;;;0.70;0.70;;;;;;;7.57;57.55;102131.43;112924;1194;139680;-79
2021/10/10 01:03:17;;;;;;;0.60;0.60;;;;;;;7.62;57.45;102131.33;112811;1195;93884;-79
2021/10/10 01:05:44;;;;;;;0.60;0.60;;;;;;;7.61;57.41;102125.84;112617;1194;139218;-79
2021/10/10 01:08:14;;;;;;;0.60;0.60;;;;;;;7.61;57.08;102126.55;112513;1195;95833;-79
2021/10/10 01:10:44;;;;;;;0.60;0.60;;;;;;;7.60;56.97;102123.54;112542;1194;138258;-79
2021/10/10 01:13:13;;;;;;;0.60;0.60;;;;;;;7.51;57.12;102126.06;112704;1194;93948;-79
2021/10/10 01:15:40;;;;;;;0.60;0.60;;;;;;;7.47;57.30;102122.10;112799;1193;94593;-79
2021/10/10 01:18:06;;;;;;;0.60;0.60;;;;;;;7.47;57.07;102116.28;112523;1195;139127;-79
2021/10/10 01:20:43;;;;;;;0.70;0.70;;;;;;;7.45;56.92;102116.95;112550;1194;95759;-79
2021/10/10 01:23:10;;;;;;;0.60;0.60;;;;;;;7.40;56.77;102116.88;112534;1195;138392;-79
2021/10/10 01:25:37;;;;;;;0.60;0.60;;;;;;;7.38;57.00;102114.92;112734;1194;94067;-79
2021/10/10 01:28:04;;;;;;;0.70;0.70;;;;;;;7.33;57.04;102115.39;112437;1194;93955;-79
2021/10/10 01:30:32;;;;;;;0.70;0.70;;;;;;;7.40;57.40;102115.46;112469;1193;138957;-79
2021/10/10 01:32:59;;;;;;;0.70;0.70;;;;;;;7.42;57.70;102113.91;112642;1194;94443;-79
2021/10/10 01:35:25;;;;;;;0.60;0.60;;;;;;;7.40;58.00;102111.22;112712;1193;136760;-81
2021/10/10 01:37:52;;;;;;;0.70;0.70;;;;;;;7.37;57.99;102109.77;112780;1195;94981;-79
2021/10/10 01:40:19;;;;;;;0.60;0.60;;;;;;;7.34;57.44;102111.33;112646;1196;93989;-79
2021/10/10 01:42:45;;;;;;;0.70;0.70;;;;;;;7.38;57.09;102107.85;112431;1193;138575;-79
2021/10/10 01:45:14;;;;;;;0.60;0.60;;;;;;;7.39;57.31;102111.39;112614;1195;94803;-79
2021/10/10 01:47:41;;;;;;;0.70;0.70;;;;;;;7.35;56.77;102108.52;112304;1195;138378;-79
2021/10/10 01:50:08;;;;;;;0.60;0.60;;;;;;;7.34;56.79;102107.25;112316;1195;94353;-81
2021/10/10 01:52:36;;;;;;;0.70;0.70;;;;;;;7.30;56.79;102104.01;112368;1195;94456;-79
2021/10/10 01:55:04;;;;;;;0.70;0.70;;;;;;;7.22;56.93;102098.06;112309;1195;138263;-81
2021/10/10 01:57:30;;;;;;;0.70;0.70;;;;;;;7.26;57.07;102101.66;112483;1193;94400;-79
2021/10/10 01:59:57;;;;;;;0.70;0.70;;;;;;;7.25;57.02;102099.36;112459;1195;137236;-78
2021/10/10 02:02:23;;;;;;;0.70;0.70;;;;;;;7.26;56.53;102099.89;112610;1193;95532;-79
2021/10/10 02:04:50;;;;;;;0.80;0.80;;;;;;;7.20;56.57;102101.56;112310;1195;137569;-79
2021/10/10 02:07:17;;;;;;;0.80;0.80;;;;;;;7.10;56.83;102104.25;112579;1193;95204;-79
2021/10/10 02:09:44;;;;;;;0.70;0.70;;;;;;;7.07;57.06;102100.66;112917;1194;93945;-79
2021/10/10 02:12:10;;;;;;;0.70;0.70;;;;;;;7.05;57.07;102096.04;112749;1195;138669;-79
2021/10/10 02:14:37;;;;;;;0.70;0.70;;;;;;;7.03;57.10;102096.55;112608;1194;93917;-79
2021/10/10 02:17:04;;;;;;;0.80;0.80;;;;;;;7.05;56.74;102096.77;112524;1195;138380;-80
2021/10/10 02:19:31;;;;;;;0.70;0.70;;;;;;;7.00;57.09;102094.03;112619;1195;93923;-79
2021/10/10 02:21:57;;;;;;;0.70;0.70;;;;;;;6.95;57.03;102096.23;112746;1195;94243;-79
2021/10/10 02:24:24;;;;;;;0.60;0.60;;;;;;;6.98;57.27;102095.42;112374;1193;137227;-79
2021/10/10 02:26:50;;;;;;;0.60;0.60;;;;;;;6.99;57.12;102094.36;112636;1195;94353;-79
2021/10/10 02:29:17;;;;;;;0.70;0.70;;;;;;;6.98;57.19;102094.36;112359;1195;137471;-79
2021/10/10 02:31:44;;;;;;;0.90;0.90;;;;;;;6.95;57.08;102097.66;112411;1194;95893;-79
2021/10/10 02:34:12;;;;;;;0.80;0.80;;;;;;;6.92;57.09;102092.48;112895;1193;94071;-79
2021/10/10 02:36:40;;;;;;;0.70;0.70;;;;;;;6.95;57.23;102094.83;112530;1195;136973;-79
2021/10/10 02:39:07;;;;;;;0.70;0.70;;;;;;;6.99;57.55;102092.08;114992;1193;107700;-79
2021/10/10 02:41:34;;;;;;;0.60;0.60;;;;;;;7.01;57.57;102090.86;114914;1194;138988;-79
2021/10/10 02:44:01;;;;;;;0.70;0.70;;;;;;;6.99;57.49;102088.02;114642;1193;94394;-79
2021/10/10 02:46:28;;;;;;;0.70;0.70;;;;;;;6.95;57.42;102086.52;112651;1195;93973;-79
2021/10/10 02:48:55;;;;;;;0.70;0.70;;;;;;;6.89;57.86;102088.71;112412;1194;139277;-79
2021/10/10 02:51:22;;;;;;;0.70;0.70;;;;;;;6.86;58.18;102090.96;112614;1195;94826;-79
2021/10/10 02:53:49;;;;;;;0.60;0.60;;;;;;;6.86;58.18;102094.52;112523;1194;138213;-80
2021/10/10 02:56:16;;;;;;;0.80;0.80;;;;;;;6.86;57.88;102088.15;112740;1194;93953;-81
2021/10/10 02:58:43;;;;;;;0.70;0.70;;;;;;;6.86;58.17;102087.27;112676;1195;137569;-81
2021/10/10 03:01:10;;;;;;;0.70;0.70;;;;;;;6.88;58.35;102083.41;112717;1195;108657;-81
2021/10/10 03:03:37;;;;;;;0.60;0.60;;;;;;;6.85;58.09;102083.88;114892;1194;91902;-81
2021/10/10 03:06:04;;;;;;;0.60;0.60;;;;;;;6.88;57.99;102080.59;114885;1194;137545;-79
2021/10/10 03:08:30;;;;;;;0.70;0.70;;;;;;;6.87;58.03;102078.80;114941;1194;92472;-79
2021/10/10 03:10:57;;;;;;;0.70;0.70;;;;;;;6.88;58.07;102080.59;114265;1195;139149;-79
2021/10/10 03:13:23;;;;;;;0.80;0.80;;;;;;;6.92;57.92;102077.64;113066;1194;93943;-81
2021/10/10 03:15:50;;;;;;;0.80;0.80;;;;;;;6.91;57.53;102073.58;113171;1194;93902;-79
2021/10/10 03:18:17;;;;;;;0.70;0.70;;;;;;;6.85;57.59;102070.65;113193;1195;137290;-79
2021/10/10 03:20:43;;;;;;;0.70;0.70;;;;;;;6.80;58.03;102073.05;113205;1195;93878;-79
2021/10/10 03:23:10;;;;;;;0.70;0.70;;;;;;;6.82;58.02;102069.71;113202;1195;137903;-79
2021/10/10 03:25:36;;;;;;;0.70;0.70;;;;;;;6.90;58.37;102068.44;113327;1193;94002;-79
2021/10/10 03:28:03;;;;;;;0.60;0.60;;;;;;;6.94;58.47;102068.31;112994;1195;93924;-79
2021/10/10 03:30:30;;;;;;;0.70;0.70;;;;;;;6.94;58.63;102068.67;112578;1195;138559;-79
2021/10/10 03:32:57;;;;;;;0.70;0.70;;;;;;;6.92;58.67;102068.82;112547;1194;94027;-79
2021/10/10 03:35:23;;;;;;;0.70;0.70;;;;;;;6.94;58.77;102067.08;112318;1195;139253;-79
2021/10/10 03:37:50;;;;;;;0.70;0.70;;;;;;;6.96;58.69;102065.52;112491;1194;94099;-79
2021/10/10 03:40:17;;;;;;;0.60;0.60;;;;;;;6.96;58.51;102064.11;112517;1195;94015;-79
2021/10/10 03:42:44;;;;;;;0.70;0.70;;;;;;;6.95;58.39;102062.69;112326;1194;139740;-79
2021/10/10 03:45:10;;;;;;;0.70;0.70;;;;;;;6.97;57.84;102061.14;112336;1194;93914;-78
2021/10/10 03:47:37;;;;;;;0.70;0.70;;;;;;;6.95;57.68;102058.63;112195;1195;138414;-78
2021/10/10 03:50:04;;;;;;;0.70;0.70;;;;;;;6.89;57.97;102054.31;112618;1193;94355;-78
2021/10/10 03:52:31;;;;;;;0.70;0.70;;;;;;;6.85;57.88;102052.83;112479;1194;93987;-79
2021/10/10 03:57:25;;;;;;;0.90;0.90;;;;;;;6.83;57.90;102047.68;112601;1195;93935;-79
2021/10/10 03:59:57;;;;;;;0.70;0.70;;;;;;;6.77;58.10;102047.57;112393;1193;138131;-81
2021/10/10 04:02:24;;;;;;;0.60;0.60;;;;;;;6.80;58.17;102044.44;112432;1195;94889;-81
2021/10/10 04:04:51;;;;;;;0.60;0.60;;;;;;;6.80;58.23;102042.33;112465;1193;137563;-81
2021/10/10 04:07:21;;;;;;;0.70;0.70;;;;;;;6.82;58.17;102041.84;112378;1194;94066;-79
2021/10/10 04:09:48;;;;;;;0.70;0.70;;;;;;;6.80;58.12;102037.91;112431;1194;108561;-81
2021/10/10 04:12:15;;;;;;;0.70;0.70;;;;;;;6.77;58.03;102039.65;112521;1194;142167;-81
2021/10/10 04:14:41;;;;;;;0.70;0.70;;;;;;;6.80;57.69;102038.44;112591;1195;93868;-79
2021/10/10 04:17:08;;;;;;;0.70;0.70;;;;;;;6.77;58.31;102041.75;111711;1196;138926;-79
2021/10/10 04:19:34;;;;;;;0.70;0.70;;;;;;;6.76;58.44;102041.92;111884;1194;93991;-79
2021/10/10 04:22:01;;;;;;;0.80;0.80;;;;;;;6.72;58.69;102041.50;112527;1193;109727;-79
2021/10/10 04:24:28;;;;;;;0.70;0.70;;;;;;;6.69;58.89;102043.58;112484;1193;137684;-79
2021/10/10 04:26:54;;;;;;;0.80;0.80;;;;;;;6.76;58.64;102041.73;112352;1193;94484;-79
2021/10/10 04:29:21;;;;;;;0.90;0.90;;;;;;;6.80;58.29;102038.45;112672;1195;137153;-80
2021/10/10 04:31:47;;;;;;;0.70;0.70;;;;;;;6.82;58.35;102037.23;112915;1195;95003;-80
2021/10/10 04:34:14;;;;;;;0.70;0.70;;;;;;;6.83;58.48;102036.03;112887;1195;107483;-80
2021/10/10 04:36:41;;;;;;;0.70;0.70;;;;;;;6.86;58.38;102032.72;112424;1194;139270;-80
2021/10/10 04:39:08;;;;;;;0.70;0.70;;;;;;;6.85;58.57;102032.70;112628;1193;94278;-80
2021/10/10 04:41:34;;;;;;;0.60;0.60;;;;;;;6.79;58.65;102035.43;112453;1194;138760;-80
2021/10/10 04:44:01;;;;;;;0.70;0.70;;;;;;;6.76;58.57;102044.20;112544;1194;94464;-79
2021/10/10 04:46:28;;;;;;;0.70;0.70;;;;;;;6.77;58.53;102042.45;112494;1195;93938;-79
2021/10/10 04:48:54;;;;;;;0.60;0.60;;;;;;;6.86;58.28;102038.54;112558;1195;136586;-79
2021/10/10 04:51:23;;;;;;;0.70;0.70;;;;;;;6.85;58.63;102036.94;112549;1193;94383;-79
2021/10/10 04:53:50;;;;;;;0.60;0.60;;;;;;;6.80;58.82;102035.98;112520;1195;138205;-79
2021/10/10 04:56:16;;;;;;;0.70;0.70;;;;;;;6.74;58.91;102034.81;112443;1196;94093;-80
2021/10/10 04:58:43;;;;;;;0.80;0.80;;;;;;;6.73;58.62;102030.92;112513;1193;139144;-79
2021/10/10 05:01:09;;;;;;;0.70;0.70;;;;;;;6.79;58.70;102032.43;112646;1195;93906;-79
2021/10/10 05:03:36;;;;;;;0.60;0.60;;;;;;;6.82;58.96;102036.02;112591;1195;94043;-79
2021/10/10 05:06:03;;;;;;;0.70;0.70;;;;;;;6.76;58.97;102034.13;112295;1194;137765;-79
2021/10/10 05:08:30;;;;;;;0.70;0.70;;;;;;;6.79;58.53;102033.84;112581;1194;93850;-79
2021/10/10 05:10:56;;;;;;;0.70;0.70;;;;;;;6.82;58.24;102032.30;112334;1194;138141;-79
2021/10/10 05:13:23;;;;;;;0.70;0.70;;;;;;;6.79;58.44;102031.02;112704;1195;94709;-79
2021/10/10 05:15:49;;;;;;;0.70;0.70;;;;;;;6.77;58.85;102032.22;112390;1194;94818;-79
2021/10/10 05:18:16;;;;;;;0.70;0.70;;;;;;;6.78;58.72;102034.70;112319;1193;137559;-79
2021/10/10 05:20:43;;;;;;;0.70;0.70;;;;;;;6.78;58.66;102029.92;112356;1195;97663;-79
2021/10/10 05:23:10;;;;;;;0.70;0.70;;;;;;;6.77;58.81;102032.74;112329;1194;139554;-79
2021/10/10 05:25:37;;;;;;;0.70;0.70;;;;;;;6.81;58.76;102036.00;112473;1195;94052;-80
2021/10/10 05:28:04;;;;;;;0.60;0.60;;;;;;;6.80;58.64;102032.63;112407;1195;93950;-80
2021/10/10 05:30:32;;;;;;;0.70;0.70;;;;;;;6.86;58.43;102032.36;112254;1194;137319;-80
2021/10/10 05:32:59;;;;;;;0.70;0.70;;;;;;;6.88;58.30;102031.33;112418;1194;94575;-79
2021/10/10 05:35:31;;;;;;;0.70;0.70;;;;;;;6.91;58.63;102030.50;112389;1194;138421;-79
2021/10/10 05:37:58;;;;;;;0.70;0.70;;;;;;;6.95;58.58;102027.02;112315;1195;94030;-81
2021/10/10 05:40:25;;;;;;;0.60;0.60;;;;;;;6.98;58.89;102026.18;112331;1195;94275;-79
2021/10/10 05:42:51;;;;;;;0.70;0.70;;;;;;;6.94;58.72;102027.17;112130;1194;139542;-79
2021/10/10 05:45:18;;;;;;;0.70;0.70;;;;;;;6.90;59.23;102028.00;112315;1195;94019;-79
2021/10/10 05:47:44;;;;;;;0.70;0.70;;;;;;;6.95;58.68;102029.31;112186;1194;136945;-79
2021/10/10 05:50:11;;;;;;;0.70;0.70;;;;;;;7.05;58.77;102025.23;112664;1194;94490;-79
2021/10/10 05:52:38;;;;;;;0.70;0.70;;;;;;;7.16;58.43;102022.90;112686;1195;94502;-79
2021/10/10 05:55:08;;;;;;;0.60;0.60;;;;;;;7.21;58.00;102024.22;112624;1195;139359;-79
2021/10/10 05:57:49;;;;;;;0.70;0.70;;;;;;;7.19;58.25;102030.54;112735;1195;94190;-79
2021/10/10 06:00:18;;;;;;;0.70;0.70;;;;;;;7.18;58.24;102028.94;112671;1195;139896;-79
2021/10/10 06:02:46;;;;;;;0.70;0.70;;;;;;;7.24;57.98;102028.48;112703;1195;108532;-79
2021/10/10 06:05:13;;;;;;;0.70;0.70;;;;;;;7.16;57.48;102029.09;112581;1195;141181;-81
2021/10/10 06:07:40;;;;;;;0.70;0.70;;;;;;;7.16;57.67;102030.50;112646;1194;93919;-81
2021/10/10 06:10:08;;;;;;;0.60;0.60;;;;;;;7.11;57.74;102025.66;112715;1194;93897;-81
2021/10/10 06:12:38;;;;;;;0.70;0.70;;;;;;;7.05;57.96;102032.46;112447;1195;138159;-79
2021/10/10 06:15:06;;;;;;;0.70;0.70;;;;;;;7.02;57.78;102032.25;112724;1194;93871;-79
2021/10/10 06:17:34;;;;;;;0.80;0.80;;;;;;;7.11;57.98;102028.48;112588;1195;137974;-79
2021/10/10 06:20:02;;;;;;;0.60;0.60;;;;;;;7.23;57.73;102029.19;112535;1195;109708;-80
2021/10/10 06:22:29;;;;;;;0.60;0.60;;;;;;;7.30;57.52;102028.56;112588;1194;108786;-82
2021/10/10 06:24:56;;;;;;;0.60;0.60;;;;;;;7.33;57.47;102029.84;112618;1193;136997;-80
2021/10/10 06:27:22;;;;;;;0.60;0.60;;;;;;;7.39;57.51;102029.92;112690;1193;93821;-81
2021/10/10 06:29:49;;;;;;;0.60;0.60;;;;;;;7.43;57.34;102024.51;112514;1194;138536;-80
2021/10/10 06:32:15;;;;;;;0.70;0.70;;;;;;;7.58;57.18;102026.44;112789;1193;94006;-78
2021/10/10 06:34:42;;;;;;;0.60;0.60;;;;;;;7.78;56.68;102021.56;112566;1193;137798;-80
2021/10/10 06:37:09;;;;;;;0.60;0.60;;;;;;;7.81;55.96;102020.73;112414;1194;93933;-82
2021/10/10 06:39:35;;;;;;;0.60;0.60;;;;;;;7.79;55.99;102019.46;112469;1194;94224;-82
2021/10/10 06:42:03;;;;;;;0.60;0.60;;;;;;;7.82;56.29;102018.77;112188;1195;137119;-82
2021/10/10 06:44:29;;;;;;;0.60;0.60;;;;;;;7.94;55.86;102019.98;112377;1195;94027;-84
2021/10/10 06:46:57;;;;;;;0.60;0.60;;;;;;;7.97;55.81;102017.00;112198;1195;138722;-82
2021/10/10 06:49:23;;;;;;;0.60;0.60;;;;;;;7.99;55.84;102018.77;112424;1193;93920;-79
2021/10/10 06:51:50;;;;;;;0.60;0.60;;;;;;;7.97;55.52;102020.36;112155;1195;93887;-78
2021/10/10 06:54:17;;;;;;;0.50;0.50;;;;;;;8.05;54.71;102022.02;112159;1194;138938;-80
2021/10/10 06:56:45;;;;;;;0.50;0.50;;;;;;;8.11;55.00;102021.93;112178;1195;93961;-80
2021/10/10 06:59:11;;;;;;;0.50;0.50;;;;;;;8.23;55.29;102023.27;112276;1195;136486;-80
2021/10/10 07:01:39;;;;;;;0.50;0.50;;;;;;;8.30;54.69;102020.50;112275;1193;93840;-79
2021/10/10 07:04:06;;;;;;;0.60;0.60;;;;;;;8.37;54.46;102019.34;112307;1195;93942;-80
2021/10/10 07:06:32;;;;;;;0.60;0.60;;;;;;;8.43;54.68;102016.91;112099;1194;136806;-81
2021/10/10 07:08:59;;;;;;;0.50;0.50;;;;;;;8.44;54.67;102016.58;112704;1194;93932;-80
2021/10/10 07:11:25;;;;;;;0.50;0.50;;;;;;;8.50;54.62;102020.18;112498;1194;138626;-82
2021/10/10 07:13:52;;;;;;;0.50;0.50;;;;;;;8.55;54.20;102016.51;112294;1193;93955;-80
2021/10/10 07:16:25;;;;;;;0.50;0.50;;;;;;;8.67;54.33;102018.20;112399;1194;93957;-81
2021/10/10 07:18:54;;;;;;;0.60;0.60;;;;;;;8.70;53.56;102021.23;112140;1195;138876;-81
2021/10/10 07:26:37;;;;;;;0.50;0.50;;;;;;;8.96;52.23;102020.34;112566;1194;107494;-80
2021/10/10 07:29:04;;;;;;;0.50;0.50;;;;;;;9.01;51.85;102023.20;112300;1195;139409;-82
2021/10/10 07:31:31;;;;;;;0.50;0.50;;;;;;;9.03;51.38;102024.46;112311;1195;94304;-80
2021/10/10 07:33:57;;;;;;;0.50;0.50;;;;;;;9.08;51.95;102024.32;112533;1194;105333;-82
2021/10/10 07:36:24;;;;;;;0.50;0.50;;;;;;;9.14;51.95;102026.30;112437;1195;137473;-80
2021/10/10 07:38:50;;;;;;;0.50;0.50;;;;;;;9.22;51.63;102023.88;112408;1194;94418;-79
2021/10/10 07:41:17;;;;;;;0.50;0.50;;;;;;;9.25;50.59;102024.42;112301;1193;139490;-80
2021/10/10 07:43:43;;;;;;;0.50;0.50;;;;;;;9.27;50.66;102025.31;112390;1193;94699;-80
2021/10/10 07:46:32;;;;;;;0.50;0.50;;;;;;;9.30;50.25;102024.98;112572;1194;94071;-81
2021/10/10 07:48:59;;;;;;;0.50;0.50;;;;;;;9.36;50.98;102026.24;112242;1194;137301;-80
2021/10/10 07:51:28;;;;;;;0.50;0.50;;;;;;;9.44;51.19;102028.77;112409;1193;94453;-79
2021/10/10 07:53:55;;;;;;;0.50;0.40;;;;;;;9.53;51.46;102027.92;112149;1195;138740;-80
2021/10/10 07:56:22;;;;;;;0.50;0.40;;;;;;;9.61;51.10;102023.70;112380;1195;94100;-79
2021/10/10 07:58:49;;;;;;;0.50;0.50;;;;;;;9.65;49.56;102023.54;112213;1194;137428;-79
2021/10/10 08:01:16;;;;;;;0.50;0.40;;;;;;;9.75;51.01;102023.92;112342;1195;93969;-79
2021/10/10 08:03:43;;;;;;;0.50;0.40;;;;;;;9.83;50.68;102016.50;112222;1194;94050;-80
2021/10/10 08:06:10;;;;;;;0.50;0.50;;;;;;;9.95;50.36;102016.70;112269;1194;138442;-80
2021/10/10 08:08:37;;;;;;;0.40;0.40;;;;;;;10.07;50.08;102017.27;112318;1194;93960;-79
2021/10/10 08:11:03;;;;;;;0.40;0.40;;;;;;;10.15;49.28;102010.18;112281;1194;138530;-79
2021/10/10 08:13:30;;;;;;;0.50;0.40;;;;;;;10.24;49.00;102013.91;112366;1193;108220;-80
2021/10/10 08:15:57;;;;;;;0.40;0.40;;;;;;;10.36;49.22;102009.87;112367;1194;94350;-80
2021/10/10 08:18:24;;;;;;;0.40;0.40;;;;;;;10.48;48.54;102008.11;112289;1193;137781;-78
2021/10/10 08:20:50;;;;;;;0.40;0.40;;;;;;;10.55;48.15;102006.87;112776;1195;93992;-80
2021/10/10 08:23:17;;;;;;;0.40;0.30;;;;;;;10.61;47.53;102006.14;112521;1193;138787;-80
2021/10/10 08:25:43;;;;;;;0.40;0.30;;;;;;;10.69;48.41;102008.10;112428;1194;108677;-80
2021/10/10 08:28:10;;;;;;;0.40;0.30;;;;;;;10.83;48.18;102006.84;112454;1193;94454;-80
2021/10/10 08:30:37;;;;;;;0.40;0.40;;;;;;;10.98;47.43;102006.10;112342;1194;139789;-80
2021/10/10 08:33:04;;;;;;;0.40;0.40;;;;;;;11.09;46.76;102006.77;112456;1193;94262;-82
2021/10/10 08:35:30;;;;;;;0.40;0.40;;;;;;;11.23;46.39;102003.89;112250;1195;138104;-83
2021/10/10 08:37:57;;;;;;;0.40;0.30;;;;;;;11.34;46.32;102001.02;112590;1193;94888;-84
2021/10/10 08:40:24;;;;;;;0.40;0.30;;;;;;;11.43;45.51;101998.67;112636;1195;94452;-80
2021/10/10 08:42:53;;;;;;;0.40;0.30;;;;;;;11.53;45.69;102001.29;112507;1194;138152;-83
2021/10/10 08:45:29;;;;;;;0.40;0.30;;;;;;;11.67;45.26;101992.34;112528;1195;108933;-82
2021/10/10 08:47:56;;;;;;;0.40;0.30;;;;;;;11.90;44.82;101994.52;112361;1195;138361;-80
2021/10/10 08:50:33;;;;;;;0.40;0.30;;;;;;;12.63;41.42;101994.52;112571;1194;94268;-80
2021/10/10 08:53:01;;;;;;;0.40;0.30;;;;;;;12.98;41.57;101991.86;112475;1194;137392;-81
2021/10/10 08:55:31;;;;;;;0.40;0.30;;;;;;;13.35;39.52;101992.16;112559;1194;109134;-82
2021/10/10 08:57:58;;;;;;;0.40;0.30;;;;;;;13.55;39.08;101982.30;112590;1193;107412;-81
2021/10/10 09:00:33;;;;;;;0.40;0.30;;;;;;;13.44;40.30;101990.10;112371;1193;137632;-80
2021/10/10 09:03:01;;;;;;;0.40;0.20;;;;;;;13.35;39.83;101985.93;112587;1195;95066;-81
2021/10/10 09:05:47;;;;;;;0.40;0.20;;;;;;;13.33;40.74;101982.20;112322;1195;137227;-79
2021/10/10 09:08:13;;;;;;;0.40;0.20;;;;;;;13.33;40.22;101988.08;112575;1195;94489;-81
2021/10/10 09:10:40;;;;;;;0.40;0.30;;;;;;;13.29;39.56;101984.20;112658;1195;93984;-81
2021/10/10 09:13:07;;;;;;;0.40;0.30;;;;;;;13.63;40.25;101980.94;112764;1195;138324;-80
2021/10/10 09:15:39;;;;;;;0.40;0.20;;;;;;;14.45;38.00;101974.50;112901;1195;93950;-80
2021/10/10 09:18:08;;;;;;;0.40;0.20;;;;;;;14.91;36.12;101973.00;112879;1195;138076;-81
2021/10/10 09:20:42;;;;;;;0.40;0.20;;;;;;;15.35;35.14;101970.52;112702;1193;94418;-80
2021/10/10 09:23:30;;;;;;;0.40;0.20;;;;;;;15.88;35.82;101971.34;112386;1195;137944;-79
2021/10/10 09:25:59;;;;;;;0.40;0.20;;;;;;;16.24;33.69;101969.42;112382;1195;109037;-81
2021/10/10 09:28:27;;;;;;;0.40;0.10;;;;;;;17.28;33.21;101965.73;112795;1195;108763;-80
2021/10/10 09:30:56;;;;;;;0.40;0.10;;;;;;;18.47;30.99;101955.89;112705;1194;136272;-81
2021/10/10 09:33:45;;;;;;;0.40;0.10;;;;;;;19.53;28.88;101954.61;112773;1193;94222;-82
2021/10/10 09:36:17;;;;;;;0.40;0.10;;;;;;;20.47;28.45;101957.80;112540;1193;136605;-81
2021/10/10 09:39:25;;;;;;;0.40;0.10;;;;;;;22.27;25.68;101946.95;112438;1195;109212;-81
2021/10/10 09:41:50;;;;;;;0.40;0.10;;;;;;;24.03;22.78;101949.27;112476;1194;137601;-80
2021/10/10 09:44:23;;;;;;;0.40;0.00;;;;;;;25.43;23.21;101946.36;112674;1194;93903;-81
2021/10/10 09:46:50;;;;;;;0.40;0.10;;;;;;;26.94;21.60;101944.48;112479;1195;137709;-83
2021/10/10 09:49:29;;;;;;;0.40;0.00;;;;;;;28.06;19.91;101943.86;112642;1195;108635;-82
2021/10/10 09:52:09;;;;;;;0.40;0.00;;;;;;;29.24;19.07;101945.66;112821;1194;94483;-81
2021/10/10 09:54:54;;;;;;;0.40;0.00;;;;;;;29.60;16.81;101943.67;112351;1194;139532;-80
2021/10/10 09:57:22;;;;;;;0.40;0.00;;;;;;;29.51;16.37;101946.54;112387;1194;100538;-80
2021/10/10 09:59:50;;;;;;;0.40;0.00;;;;;;;29.87;16.99;101937.73;112621;1195;137811;-82
2021/10/10 10:02:17;;;;;;;0.40;0.00;;;;;;;30.42;16.03;101939.70;112761;1195;93918;-81
2021/10/10 10:04:49;;;;;;;0.40;0.00;;;;;;;30.68;15.58;101936.76;112798;1194;94108;-82
2021/10/10 10:07:21;;;;;;;0.40;0.00;;;;;;;31.16;14.98;101931.27;114722;1193;141039;-82
2021/10/10 10:09:52;;;;;;;0.40;0.00;;;;;;;31.07;14.47;101930.72;113163;1195;98948;-80
2021/10/10 10:12:21;;;;;;;0.40;0.00;;;;;;;31.05;14.60;101925.75;112764;1195;137591;-81
2021/10/10 10:14:52;;;;;;;0.40;0.00;;;;;;;31.35;14.86;101921.05;112905;1195;94274;-81
2021/10/10 10:17:22;;;;;;;0.40;0.00;;;;;;;31.48;14.35;101920.80;112652;1193;138250;-81
2021/10/10 10:19:50;;;;;;;0.40;0.00;;;;;;;31.70;14.13;101920.30;112617;1194;100085;-81
2021/10/10 10:22:17;;;;;;;0.40;0.00;;;;;;;31.18;14.19;101917.27;112599;1195;93851;-79
2021/10/10 10:24:46;;;;;;;0.40;0.00;;;;;;;29.12;16.00;101915.00;112580;1194;136918;-80
2021/10/10 10:27:14;;;;;;;0.40;0.00;;;;;;;27.04;16.38;101916.95;113058;1194;109180;-82
2021/10/10 10:29:46;;;;;;;0.40;0.00;;;;;;;26.73;16.81;101917.38;112926;1193;139227;-82
2021/10/10 10:32:15;;;;;;;0.40;0.00;;;;;;;25.51;18.81;101918.62;114589;1194;93830;-80
2021/10/10 10:35:11;;;;;;;0.40;0.00;;;;;;;24.05;19.47;101922.28;112847;1194;94033;-81
2021/10/10 10:37:44;;;;;;;0.40;0.00;;;;;;;22.51;20.79;101919.52;112397;1195;138120;-81
2021/10/10 10:40:19;;;;;;;0.40;0.00;;;;;;;21.54;22.32;101920.91;112621;1195;108591;-80
2021/10/10 10:42:50;;;;;;;0.40;0.10;;;;;;;20.89;23.79;101922.10;112529;1195;137695;-79
2021/10/10 10:45:23;;;;;;;0.40;0.10;;;;;;;20.25;24.14;101919.81;113396;1193;93855;-81
2021/10/10 10:47:54;;;;;;;0.40;0.10;;;;;;;19.58;25.22;101915.50;112554;1195;137556;-82
2021/10/10 10:50:25;;;;;;;0.40;0.10;;;;;;;19.02;25.13;101918.90;112848;1194;107547;-80
2021/10/10 10:52:56;;;;;;;0.40;0.10;;;;;;;18.55;25.96;101915.70;113017;1194;94615;-81
2021/10/10 10:55:30;;;;;;;0.40;0.10;;;;;;;18.16;26.73;101913.29;112782;1195;137787;-82
2021/10/10 10:57:58;;;;;;;0.40;0.10;;;;;;;17.68;26.53;101916.98;112763;1193;109297;-80
2021/10/10 11:00:30;;;;;;;0.40;0.10;;;;;;;17.30;27.56;101913.27;112690;1195;139348;-80
2021/10/10 11:02:57;;;;;;;0.40;0.10;;;;;;;17.04;27.77;101914.05;114637;1193;94418;-81
2021/10/10 11:05:54;;;;;;;0.40;0.10;;;;;;;16.74;28.34;101915.73;112652;1194;138412;-79
2021/10/10 11:08:25;;;;;;;0.40;0.10;;;;;;;16.59;29.36;101907.20;112924;1195;108671;-82
2021/10/10 11:11:04;;;;;;;0.40;0.10;;;;;;;16.42;28.81;101906.60;112725;1194;107581;-81
2021/10/10 11:13:33;;;;;;;0.40;0.10;;;;;;;16.21;29.31;101906.40;112315;1195;137355;-81
2021/10/10 11:16:09;;;;;;;0.40;0.10;;;;;;;15.98;29.06;101907.16;112959;1194;94455;-81
2021/10/10 11:18:42;;;;;;;0.40;0.20;;;;;;;15.75;29.00;101900.36;112956;1194;137048;-80
2021/10/10 11:21:10;;;;;;;0.40;0.10;;;;;;;15.60;29.69;101899.27;113056;1195;107745;-82
2021/10/10 11:23:37;;;;;;;0.40;0.20;;;;;;;15.57;30.07;101897.91;112853;1193;138488;-84
2021/10/10 11:26:06;;;;;;;0.40;0.20;;;;;;;15.41;29.16;101898.45;113113;1195;93948;-80
2021/10/10 11:28:59;;;;;;;0.40;0.20;;;;;;;15.32;30.10;101891.31;113011;1193;110386;-85
2021/10/10 11:31:31;;;;;;;0.40;0.20;;;;;;;15.31;30.12;101886.13;112747;1195;139192;-83
2021/10/10 11:34:09;;;;;;;0.40;0.20;;;;;;;15.23;30.43;101882.90;113243;1195;94553;-84